If you wish to contribute or participate in the discussions about articles you are invited to join SKYbrary as a registered user

 Actions

Pashkovsky Airport

From SKYbrary Wiki

URKK
Airport
ICAO: URKK
Summary
Name Pashkovsky Airport
Region Europe
Territory Russian Federation RU.gif
Location Krasnodar Krai
Serving
Coordinates 45° 2' 5.00" N, 39° 10' 14.00" E
Runways
Designator Length Width Surface ROPS
05L/23R 2200 m7,217.848 ft
49 m160.761 ft
ASP yes/yes
05R/23L 2998 m9,835.958 ft
44 m144.357 ft
CON yes/yes


METAR
Observation URKK 171530Z 06003MPS CAVOK 03/M01 Q1029 R05R/CLRD70 NOSIG RMK QFE769
Station Krasnodar
Date/Time 17 February 2020 15:30:00
Wind direction 60°
Wind speed kts
Lowest cloud amount clouds and visibility OK
Temperature 3°C
Dew point
Humidity 74%
QNH 1029 hPa
Weather condition n/a

Krasnodar International Airport

ICAO: URKK IATA: KRR

Description

Also known as Pashkovsky Airport, this airport serves the souther Russian city of Krasnodar.

Climatology

Humid “subtropical” climate (Köppen climate classification Cfa) - characterized by hot, humid summers and cool winters. Significant amounts of precipitation occur in all seasons in most areas.

Maps

Terrain

Loading map...

Airport Layout

Loading map...


Accidents & Serious Incidents at or in vicinity of URKK

None on SKYbrary